sensor_id;sensor_type;location;lat;lon;timestamp;temperature;humidity
5492;DHT22;2768;53.540;10.224;2023-04-03T00:03:11;5.00;2.10
5492;DHT22;2768;53.540;10.224;2023-04-03T00:09:04;4.70;4.00
5492;DHT22;2768;53.540;10.224;2023-04-03T00:15:03;4.80;8.30
5492;DHT22;2768;53.540;10.224;2023-04-03T00:20:56;4.70;5.20
5492;DHT22;2768;53.540;10.224;2023-04-03T00:26:49;4.70;4.10
5492;DHT22;2768;53.540;10.224;2023-04-03T00:32:44;4.50;14.10
5492;DHT22;2768;53.540;10.224;2023-04-03T00:38:37;4.80;11.10
5492;DHT22;2768;53.540;10.224;2023-04-03T00:51:04;4.50;13.10
5492;DHT22;2768;53.540;10.224;2023-04-03T00:56:58;4.20;17.60
5492;DHT22;2768;53.540;10.224;2023-04-03T01:02:52;4.10;16.60
5492;DHT22;2768;53.540;10.224;2023-04-03T01:08:48;4.20;18.40
5492;DHT22;2768;53.540;10.224;2023-04-03T01:14:42;4.60;24.90
5492;DHT22;2768;53.540;10.224;2023-04-03T01:20:57;4.40;23.30
5492;DHT22;2768;53.540;10.224;2023-04-03T01:26:58;4.80;18.20
5492;DHT22;2768;53.540;10.224;2023-04-03T01:32:53;4.70;19.10
5492;DHT22;2768;53.540;10.224;2023-04-03T01:38:46;4.80;16.10
5492;DHT22;2768;53.540;10.224;2023-04-03T01:44:40;5.00;11.70
5492;DHT22;2768;53.540;10.224;2023-04-03T01:50:35;4.90;9.50
5492;DHT22;2768;53.540;10.224;2023-04-03T01:56:29;4.50;3.90
5492;DHT22;2768;53.540;10.224;2023-04-03T02:02:23;3.80;9.40
5492;DHT22;2768;53.540;10.224;2023-04-03T02:08:18;4.10;23.00
5492;DHT22;2768;53.540;10.224;2023-04-03T02:14:11;4.00;20.20
5492;DHT22;2768;53.540;10.224;2023-04-03T02:20:06;3.80;24.70
5492;DHT22;2768;53.540;10.224;2023-04-03T02:26:06;3.90;29.10
5492;DHT22;2768;53.540;10.224;2023-04-03T02:32:00;4.00;21.90
5492;DHT22;2768;53.540;10.224;2023-04-03T02:37:55;3.80;19.90
5492;DHT22;2768;53.540;10.224;2023-04-03T02:43:50;3.80;21.50
5492;DHT22;2768;53.540;10.224;2023-04-03T02:49:44;3.70;21.60
5492;DHT22;2768;53.540;10.224;2023-04-03T02:55:38;3.50;23.00
5492;DHT22;2768;53.540;10.224;2023-04-03T03:01:33;3.50;24.30
5492;DHT22;2768;53.540;10.224;2023-04-03T03:07:26;3.40;25.10
5492;DHT22;2768;53.540;10.224;2023-04-03T03:13:19;3.40;25.90
5492;DHT22;2768;53.540;10.224;2023-04-03T03:19:13;3.90;31.50
5492;DHT22;2768;53.540;10.224;2023-04-03T03:25:07;3.80;28.60
5492;DHT22;2768;53.540;10.224;2023-04-03T03:31:01;4.20;24.30
5492;DHT22;2768;53.540;10.224;2023-04-03T03:36:57;4.10;20.60
5492;DHT22;2768;53.540;10.224;2023-04-03T03:42:51;4.10;17.20
5492;DHT22;2768;53.540;10.224;2023-04-03T03:48:44;4.10;16.50
5492;DHT22;2768;53.540;10.224;2023-04-03T03:54:39;4.00;10.30
5492;DHT22;2768;53.540;10.224;2023-04-03T04:00:32;3.80;16.60
5492;DHT22;2768;53.540;10.224;2023-04-03T04:06:26;3.80;12.50
5492;DHT22;2768;53.540;10.224;2023-04-03T04:12:24;3.70;21.80
5492;DHT22;2768;53.540;10.224;2023-04-03T04:18:18;3.70;20.70
5492;DHT22;2768;53.540;10.224;2023-04-03T04:24:13;3.80;18.70
5492;DHT22;2768;53.540;10.224;2023-04-03T04:30:09;3.80;20.20
5492;DHT22;2768;53.540;10.224;2023-04-03T04:36:04;3.80;19.70
5492;DHT22;2768;53.540;10.224;2023-04-03T04:41:59;3.50;13.90
5492;DHT22;2768;53.540;10.224;2023-04-03T04:47:56;3.10;23.40
5492;DHT22;2768;53.540;10.224;2023-04-03T04:53:50;3.20;36.90
5492;DHT22;2768;53.540;10.224;2023-04-03T04:59:46;3.60;31.50
5492;DHT22;2768;53.540;10.224;2023-04-03T05:05:42;3.70;26.20
5492;DHT22;2768;53.540;10.224;2023-04-03T05:11:35;3.70;27.10
5492;DHT22;2768;53.540;10.224;2023-04-03T05:17:31;3.50;25.00
5492;DHT22;2768;53.540;10.224;2023-04-03T05:23:26;3.50;26.30
5492;DHT22;2768;53.540;10.224;2023-04-03T05:29:22;3.50;35.10
5492;DHT22;2768;53.540;10.224;2023-04-03T05:35:16;3.40;37.00
5492;DHT22;2768;53.540;10.224;2023-04-03T05:41:14;3.50;47.90
5492;DHT22;2768;53.540;10.224;2023-04-03T05:47:10;3.70;50.50
5492;DHT22;2768;53.540;10.224;2023-04-03T05:53:04;3.70;47.40
5492;DHT22;2768;53.540;10.224;2023-04-03T05:58:59;3.50;51.20
5492;DHT22;2768;53.540;10.224;2023-04-03T06:04:53;3.40;65.30
5492;DHT22;2768;53.540;10.224;2023-04-03T06:10:46;3.50;74.00
5492;DHT22;2768;53.540;10.224;2023-04-03T06:16:41;3.40;80.10
5492;DHT22;2768;53.540;10.224;2023-04-03T06:22:35;3.60;90.30
5492;DHT22;2768;53.540;10.224;2023-04-03T06:28:29;3.60;92.30
5492;DHT22;2768;53.540;10.224;2023-04-03T06:34:24;3.70;94.70
5492;DHT22;2768;53.540;10.224;2023-04-03T06:40:21;3.90;98.60
5492;DHT22;2768;53.540;10.224;2023-04-03T06:46:15;4.10;98.20
5492;DHT22;2768;53.540;10.224;2023-04-03T06:52:10;4.30;97.70
5492;DHT22;2768;53.540;10.224;2023-04-03T06:58:04;4.30;98.80
5492;DHT22;2768;53.540;10.224;2023-04-03T07:03:58;4.60;99.90
5492;DHT22;2768;53.540;10.224;2023-04-03T07:09:53;4.70;99.90
5492;DHT22;2768;53.540;10.224;2023-04-03T07:15:46;4.90;99.20
5492;DHT22;2768;53.540;10.224;2023-04-03T07:21:40;5.00;99.10
5492;DHT22;2768;53.540;10.224;2023-04-03T07:27:35;5.20;98.10
5492;DHT22;2768;53.540;10.224;2023-04-03T07:33:28;5.30;92.10
5492;DHT22;2768;53.540;10.224;2023-04-03T07:39:21;5.50;69.40
5492;DHT22;2768;53.540;10.224;2023-04-03T07:45:16;5.60;55.40
5492;DHT22;2768;53.540;10.224;2023-04-03T07:51:11;5.60;41.40
5492;DHT22;2768;53.540;10.224;2023-04-03T07:57:04;5.70;30.60
5492;DHT22;2768;53.540;10.224;2023-04-03T08:03:00;5.70;28.00
5492;DHT22;2768;53.540;10.224;2023-04-03T08:08:53;5.90;23.00
5492;DHT22;2768;53.540;10.224;2023-04-03T08:14:48;5.90;18.40
5492;DHT22;2768;53.540;10.224;2023-04-03T08:20:43;6.00;13.00
5492;DHT22;2768;53.540;10.224;2023-04-03T08:26:36;6.10;1.00
5492;DHT22;2768;53.540;10.224;2023-04-03T08:32:29;6.10;1.00
5492;DHT22;2768;53.540;10.224;2023-04-03T08:38:25;6.20;1.00
5492;DHT22;2768;53.540;10.224;2023-04-03T08:44:25;6.30;1.00
5492;DHT22;2768;53.540;10.224;2023-04-03T08:50:19;6.40;1.00
5492;DHT22;2768;53.540;10.224;2023-04-03T08:56:16;6.50;1.00
5492;DHT22;2768;53.540;10.224;2023-04-03T09:02:26;6.60;1.00
5492;DHT22;2768;53.540;10.224;2023-04-03T09:08:23;6.80;1.00
5492;DHT22;2768;53.540;10.224;2023-04-03T09:14:23;6.80;1.00
5492;DHT22;2768;53.540;10.224;2023-04-03T09:20:21;7.00;1.00
5492;DHT22;2768;53.540;10.224;2023-04-03T09:26:21;7.10;1.00
5492;DHT22;2768;53.540;10.224;2023-04-03T09:32:24;7.20;1.00
5492;DHT22;2768;53.540;10.224;2023-04-03T09:38:20;7.30;1.00
5492;DHT22;2768;53.540;10.224;2023-04-03T09:44:22;7.50;1.00
5492;DHT22;2768;53.540;10.224;2023-04-03T09:50:21;7.60;1.00
5492;DHT22;2768;53.540;10.224;2023-04-03T09:56:21;7.80;1.00
5492;DHT22;2768;53.540;10.224;2023-04-03T10:02:28;8.10;1.00
5492;DHT22;2768;53.540;10.224;2023-04-03T10:08:28;8.40;1.00
5492;DHT22;2768;53.540;10.224;2023-04-03T10:14:21;9.20;1.00
5492;DHT22;2768;53.540;10.224;2023-04-03T10:20:29;10.60;1.00
5492;DHT22;2768;53.540;10.224;2023-04-03T10:26:32;10.20;1.00
5492;DHT22;2768;53.540;10.224;2023-04-03T10:32:45;11.20;1.00
5492;DHT22;2768;53.540;10.224;2023-04-03T10:38:46;11.00;1.00
5492;DHT22;2768;53.540;10.224;2023-04-03T10:44:57;11.00;1.00
5492;DHT22;2768;53.540;10.224;2023-04-03T10:50:58;12.70;1.00
5492;DHT22;2768;53.540;10.224;2023-04-03T10:56:55;13.60;1.00
5492;DHT22;2768;53.540;10.224;2023-04-03T11:03:07;13.70;1.00
5492;DHT22;2768;53.540;10.224;2023-04-03T11:09:05;13.40;1.00
5492;DHT22;2768;53.540;10.224;2023-04-03T11:15:02;12.30;1.00
5492;DHT22;2768;53.540;10.224;2023-04-03T11:21:02;11.70;1.00
5492;DHT22;2768;53.540;10.224;2023-04-03T11:26:58;11.20;1.00
5492;DHT22;2768;53.540;10.224;2023-04-03T11:33:08;13.10;1.00
5492;DHT22;2768;53.540;10.224;2023-04-03T11:39:17;13.20;1.00
5492;DHT22;2768;53.540;10.224;2023-04-03T11:45:27;12.90;1.00
5492;DHT22;2768;53.540;10.224;2023-04-03T11:51:47;14.10;1.00
5492;DHT22;2768;53.540;10.224;2023-04-03T11:58:03;14.00;1.00
5492;DHT22;2768;53.540;10.224;2023-04-03T12:04:08;12.60;1.00
5492;DHT22;2768;53.540;10.224;2023-04-03T12:10:15;11.50;1.00
5492;DHT22;2768;53.540;10.224;2023-04-03T12:16:26;12.70;1.00
5492;DHT22;2768;53.540;10.224;2023-04-03T12:22:20;13.60;1.00
5492;DHT22;2768;53.540;10.224;2023-04-03T12:28:14;14.10;1.00
5492;DHT22;2768;53.540;10.224;2023-04-03T12:34:23;13.70;1.00
5492;DHT22;2768;53.540;10.224;2023-04-03T12:40:26;12.90;1.00
5492;DHT22;2768;53.540;10.224;2023-04-03T12:46:22;12.60;1.00
5492;DHT22;2768;53.540;10.224;2023-04-03T12:52:30;12.60;1.00
5492;DHT22;2768;53.540;10.224;2023-04-03T12:58:26;13.00;1.00
5492;DHT22;2768;53.540;10.224;2023-04-03T13:04:19;14.10;1.00
5492;DHT22;2768;53.540;10.224;2023-04-03T13:10:17;14.60;1.00
5492;DHT22;2768;53.540;10.224;2023-04-03T13:16:11;13.70;1.00
5492;DHT22;2768;53.540;10.224;2023-04-03T13:22:07;13.20;1.00
5492;DHT22;2768;53.540;10.224;2023-04-03T13:28:05;13.40;1.00
5492;DHT22;2768;53.540;10.224;2023-04-03T13:34:07;13.70;1.00
5492;DHT22;2768;53.540;10.224;2023-04-03T13:40:11;14.70;1.00
5492;DHT22;2768;53.540;10.224;2023-04-03T13:46:24;15.50;1.00
5492;DHT22;2768;53.540;10.224;2023-04-03T13:52:23;16.20;1.00
5492;DHT22;2768;53.540;10.224;2023-04-03T13:58:23;16.50;1.00
5492;DHT22;2768;53.540;10.224;2023-04-03T14:04:21;16.60;1.00
5492;DHT22;2768;53.540;10.224;2023-04-03T14:10:15;16.40;1.00
5492;DHT22;2768;53.540;10.224;2023-04-03T14:16:13;17.20;1.00
5492;DHT22;2768;53.540;10.224;2023-04-03T14:22:17;17.70;1.00
5492;DHT22;2768;53.540;10.224;2023-04-03T14:28:15;18.10;1.00
5492;DHT22;2768;53.540;10.224;2023-04-03T14:34:10;17.50;1.00
5492;DHT22;2768;53.540;10.224;2023-04-03T14:40:06;17.70;1.00
5492;DHT22;2768;53.540;10.224;2023-04-03T14:45:59;17.70;1.00
5492;DHT22;2768;53.540;10.224;2023-04-03T14:51:53;17.10;1.00
5492;DHT22;2768;53.540;10.224;2023-04-03T14:57:48;17.60;1.00
5492;DHT22;2768;53.540;10.224;2023-04-03T15:03:42;17.50;1.00
5492;DHT22;2768;53.540;10.224;2023-04-03T15:09:35;16.60;1.00
5492;DHT22;2768;53.540;10.224;2023-04-03T15:15:31;16.10;1.00
5492;DHT22;2768;53.540;10.224;2023-04-03T15:21:25;15.20;1.00
5492;DHT22;2768;53.540;10.224;2023-04-03T15:27:18;14.90;1.00
5492;DHT22;2768;53.540;10.224;2023-04-03T15:33:13;14.00;1.00
5492;DHT22;2768;53.540;10.224;2023-04-03T15:39:07;13.40;1.00
5492;DHT22;2768;53.540;10.224;2023-04-03T15:45:00;13.20;1.00
5492;DHT22;2768;53.540;10.224;2023-04-03T15:50:55;12.60;1.00
5492;DHT22;2768;53.540;10.224;2023-04-03T15:56:50;12.60;1.00
5492;DHT22;2768;53.540;10.224;2023-04-03T16:02:45;12.40;1.00
5492;DHT22;2768;53.540;10.224;2023-04-03T16:08:40;12.30;1.00
5492;DHT22;2768;53.540;10.224;2023-04-03T16:14:33;11.90;1.00
5492;DHT22;2768;53.540;10.224;2023-04-03T16:20:27;11.50;1.00
5492;DHT22;2768;53.540;10.224;2023-04-03T16:26:21;11.40;1.00
5492;DHT22;2768;53.540;10.224;2023-04-03T16:32:15;11.00;1.00
5492;DHT22;2768;53.540;10.224;2023-04-03T16:38:08;10.80;1.00
5492;DHT22;2768;53.540;10.224;2023-04-03T16:44:03;10.60;1.00
5492;DHT22;2768;53.540;10.224;2023-04-03T16:49:59;10.40;1.00
5492;DHT22;2768;53.540;10.224;2023-04-03T16:55:53;10.40;1.00
5492;DHT22;2768;53.540;10.224;2023-04-03T17:01:48;10.40;1.00
5492;DHT22;2768;53.540;10.224;2023-04-03T17:07:42;10.20;1.00
5492;DHT22;2768;53.540;10.224;2023-04-03T17:13:38;10.00;1.00
5492;DHT22;2768;53.540;10.224;2023-04-03T17:19:33;9.80;1.00
5492;DHT22;2768;53.540;10.224;2023-04-03T17:25:26;9.80;1.00
5492;DHT22;2768;53.540;10.224;2023-04-03T17:31:19;9.40;1.00
5492;DHT22;2768;53.540;10.224;2023-04-03T17:37:14;9.30;1.00
5492;DHT22;2768;53.540;10.224;2023-04-03T17:43:08;9.30;1.00
5492;DHT22;2768;53.540;10.224;2023-04-03T17:49:02;9.30;1.00
5492;DHT22;2768;53.540;10.224;2023-04-03T17:54:57;9.30;1.00
5492;DHT22;2768;53.540;10.224;2023-04-03T18:00:50;9.10;1.00
5492;DHT22;2768;53.540;10.224;2023-04-03T18:06:47;8.90;1.00
5492;DHT22;2768;53.540;10.224;2023-04-03T18:12:43;9.00;1.00
5492;DHT22;2768;53.540;10.224;2023-04-03T18:18:36;8.90;1.00
5492;DHT22;2768;53.540;10.224;2023-04-03T18:24:31;8.80;1.00
5492;DHT22;2768;53.540;10.224;2023-04-03T18:30:27;8.70;1.00
5492;DHT22;2768;53.540;10.224;2023-04-03T18:36:21;8.60;1.00
5492;DHT22;2768;53.540;10.224;2023-04-03T18:42:15;8.60;1.00
5492;DHT22;2768;53.540;10.224;2023-04-03T18:48:10;8.30;1.00
5492;DHT22;2768;53.540;10.224;2023-04-03T18:54:04;8.20;1.00
5492;DHT22;2768;53.540;10.224;2023-04-03T18:59:57;8.10;1.00
5492;DHT22;2768;53.540;10.224;2023-04-03T19:05:52;8.20;1.00
5492;DHT22;2768;53.540;10.224;2023-04-03T19:11:46;8.20;1.00
5492;DHT22;2768;53.540;10.224;2023-04-03T19:17:39;8.00;1.00
5492;DHT22;2768;53.540;10.224;2023-04-03T19:23:34;7.90;1.00
5492;DHT22;2768;53.540;10.224;2023-04-03T19:29:27;7.80;1.00
5492;DHT22;2768;53.540;10.224;2023-04-03T19:35:21;7.60;1.00
5492;DHT22;2768;53.540;10.224;2023-04-03T19:41:18;7.50;1.00
5492;DHT22;2768;53.540;10.224;2023-04-03T19:47:14;7.10;1.00
5492;DHT22;2768;53.540;10.224;2023-04-03T19:53:10;7.10;1.00
5492;DHT22;2768;53.540;10.224;2023-04-03T19:59:11;7.40;1.00
5492;DHT22;2768;53.540;10.224;2023-04-03T20:05:05;7.30;1.00
5492;DHT22;2768;53.540;10.224;2023-04-03T20:10:58;7.50;1.00
5492;DHT22;2768;53.540;10.224;2023-04-03T20:16:53;7.20;1.00
5492;DHT22;2768;53.540;10.224;2023-04-03T20:22:46;6.70;1.00
5492;DHT22;2768;53.540;10.224;2023-04-03T20:28:39;6.60;1.00
5492;DHT22;2768;53.540;10.224;2023-04-03T20:34:34;6.30;1.00
5492;DHT22;2768;53.540;10.224;2023-04-03T20:40:27;6.30;1.00
5492;DHT22;2768;53.540;10.224;2023-04-03T20:46:21;6.30;1.00
5492;DHT22;2768;53.540;10.224;2023-04-03T20:52:40;6.10;1.00
5492;DHT22;2768;53.540;10.224;2023-04-03T20:58:35;5.70;1.00
5492;DHT22;2768;53.540;10.224;2023-04-03T21:04:33;5.70;1.00
5492;DHT22;2768;53.540;10.224;2023-04-03T21:22:54;5.20;1.00
5492;DHT22;2768;53.540;10.224;2023-04-03T21:28:49;6.20;1.00
5492;DHT22;2768;53.540;10.224;2023-04-03T21:34:43;5.60;1.00
5492;DHT22;2768;53.540;10.224;2023-04-03T21:40:37;5.50;1.00
5492;DHT22;2768;53.540;10.224;2023-04-03T21:46:32;5.20;1.00
5492;DHT22;2768;53.540;10.224;2023-04-03T21:52:25;6.00;1.00
5492;DHT22;2768;53.540;10.224;2023-04-03T21:58:19;5.10;1.00
5492;DHT22;2768;53.540;10.224;2023-04-03T22:04:13;5.10;1.00
5492;DHT22;2768;53.540;10.224;2023-04-03T22:10:07;5.60;1.00
5492;DHT22;2768;53.540;10.224;2023-04-03T22:16:02;5.90;1.00
5492;DHT22;2768;53.540;10.224;2023-04-03T22:21:57;5.00;1.00
5492;DHT22;2768;53.540;10.224;2023-04-03T22:27:50;4.90;1.00
5492;DHT22;2768;53.540;10.224;2023-04-03T22:33:45;5.00;1.00
5492;DHT22;2768;53.540;10.224;2023-04-03T22:39:38;4.90;1.00
5492;DHT22;2768;53.540;10.224;2023-04-03T22:45:32;4.90;1.00
5492;DHT22;2768;53.540;10.224;2023-04-03T22:51:26;4.60;1.00
5492;DHT22;2768;53.540;10.224;2023-04-03T22:57:20;4.90;1.00
5492;DHT22;2768;53.540;10.224;2023-04-03T23:03:13;4.60;1.00
5492;DHT22;2768;53.540;10.224;2023-04-03T23:09:08;4.50;1.00
5492;DHT22;2768;53.540;10.224;2023-04-03T23:15:01;4.50;1.00
5492;DHT22;2768;53.540;10.224;2023-04-03T23:20:57;4.50;1.00
5492;DHT22;2768;53.540;10.224;2023-04-03T23:26:51;4.80;1.00
5492;DHT22;2768;53.540;10.224;2023-04-03T23:32:45;4.60;1.00
5492;DHT22;2768;53.540;10.224;2023-04-03T23:38:38;4.90;1.00
5492;DHT22;2768;53.540;10.224;2023-04-03T23:44:33;4.40;1.00
5492;DHT22;2768;53.540;10.224;2023-04-03T23:50:27;4.10;1.00
5492;DHT22;2768;53.540;10.224;2023-04-03T23:56:21;4.40;1.00
